Time;durP1;ratioP1;P1;durP2;ratioP2;P2;SDS_P1;SDS_P2;PMS_P1;PMS_P2;Temp;Humidity;BMP_temperature;BMP_pressure;BME280_temperature;BME280_humidity;BME280_pressure;Samples;Min_cycle;Max_cycle;Signal;HPM_P1;HPM_P2
2022/08/07 00:01:25;;;;;;;12.25;4.20;;;20.40;68.80;;;;;;5094413;28;20084;-61
2022/08/07 00:03:51;;;;;;;6.28;4.25;;;20.30;68.70;;;;;;5106616;28;20070;-61
2022/08/07 00:06:19;;;;;;;8.13;4.30;;;20.30;68.80;;;;;;5104320;28;20471;-61
2022/08/07 00:08:44;;;;;;;6.57;4.18;;;20.30;68.70;;;;;;5109055;28;20026;-61
2022/08/07 00:11:10;;;;;;;6.95;4.57;;;20.30;68.60;;;;;;5104422;28;20031;-61
2022/08/07 00:13:36;;;;;;;8.18;4.20;;;20.20;68.60;;;;;;5113401;28;20023;-61
2022/08/07 00:16:04;;;;;;;5.68;4.28;;;20.20;68.90;;;;;;5113414;28;20150;-61
2022/08/07 00:18:30;;;;;;;7.68;5.15;;;20.10;68.90;;;;;;5113304;27;20055;-61
2022/08/07 00:21:02;;;;;;;8.18;5.10;;;20.10;69.20;;;;;;5102869;28;20392;-61
2022/08/07 00:23:29;;;;;;;10.27;5.30;;;20.00;69.50;;;;;;5105921;28;20042;-61
2022/08/07 00:25:59;;;;;;;9.70;5.40;;;20.10;69.80;;;;;;5093750;28;20032;-61
2022/08/07 00:28:24;;;;;;;7.70;4.47;;;20.00;69.80;;;;;;5112246;28;20023;-61
2022/08/07 00:30:50;;;;;;;10.05;5.13;;;20.00;70.00;;;;;;5112666;27;20398;-61
2022/08/07 00:33:16;;;;;;;7.15;4.28;;;20.00;70.30;;;;;;5112111;28;20050;-61
2022/08/07 00:35:42;;;;;;;7.60;4.70;;;19.90;70.10;;;;;;5111916;28;20138;-61
2022/08/07 00:38:08;;;;;;;7.05;4.72;;;19.90;70.20;;;;;;5109641;28;20020;-61
2022/08/07 00:40:33;;;;;;;9.82;5.68;;;19.80;70.40;;;;;;5113650;28;20115;-61
2022/08/07 00:43:02;;;;;;;9.43;4.90;;;19.80;70.60;;;;;;5097612;28;20051;-61
2022/08/07 00:45:28;;;;;;;7.55;4.90;;;19.80;70.80;;;;;;5109428;28;20561;-61
2022/08/07 00:47:54;;;;;;;10.93;4.88;;;19.80;70.60;;;;;;5094578;28;20036;-61
2022/08/07 00:50:20;;;;;;;6.72;4.53;;;19.70;70.40;;;;;;5095683;28;20024;-61
2022/08/07 00:52:47;;;;;;;7.40;4.57;;;19.70;70.30;;;;;;5102134;28;20523;-61
2022/08/07 00:55:13;;;;;;;10.57;5.20;;;19.70;70.10;;;;;;5094875;28;20016;-61
2022/08/07 00:57:38;;;;;;;7.97;4.68;;;19.70;70.10;;;;;;5092756;28;20036;-61
2022/08/07 01:00:07;;;;;;;9.50;5.05;;;19.70;70.30;;;;;;5092471;28;20870;-61
2022/08/07 01:02:33;;;;;;;9.10;4.68;;;19.60;70.40;;;;;;5092609;28;20043;-61
2022/08/07 01:04:58;;;;;;;9.63;5.53;;;19.50;70.30;;;;;;5098001;28;20047;-61
2022/08/07 01:07:25;;;;;;;9.80;5.65;;;19.50;70.80;;;;;;5113109;28;20484;-61
2022/08/07 01:09:54;;;;;;;9.18;4.78;;;19.40;71.20;;;;;;5097631;28;20105;-61
2022/08/07 01:12:20;;;;;;;8.38;5.20;;;19.50;71.50;;;;;;5111893;28;20053;-61
2022/08/07 01:14:46;;;;;;;6.88;4.75;;;19.40;71.50;;;;;;5104590;28;20031;-61
2022/08/07 01:17:12;;;;;;;7.57;4.88;;;19.40;71.40;;;;;;5090754;28;20089;-62
2022/08/07 01:19:41;;;;;;;6.30;4.57;;;19.30;71.40;;;;;;5110823;28;20034;-61
2022/08/07 01:22:08;;;;;;;6.07;4.15;;;19.30;71.20;;;;;;5091488;28;20056;-61
2022/08/07 01:24:39;;;;;;;7.28;4.47;;;19.30;71.10;;;;;;5090841;28;20025;-61
2022/08/07 01:27:05;;;;;;;6.72;4.78;;;19.30;71.10;;;;;;5099478;28;20106;-61
2022/08/07 01:29:32;;;;;;;8.30;4.80;;;19.20;71.00;;;;;;5109629;28;20106;-61
2022/08/07 01:31:59;;;;;;;10.25;5.00;;;19.20;71.10;;;;;;5091387;28;20475;-61
2022/08/07 01:34:31;;;;;;;13.05;5.28;;;19.20;71.90;;;;;;5103694;28;20069;-61
2022/08/07 01:37:01;;;;;;;10.35;5.43;;;19.10;71.50;;;;;;5091439;28;20438;-61
2022/08/07 01:39:28;;;;;;;9.82;5.57;;;19.10;71.80;;;;;;5095781;28;20024;-61
2022/08/07 01:42:01;;;;;;;9.20;6.60;;;19.10;71.90;;;;;;5099161;28;20391;-61
2022/08/07 01:44:29;;;;;;;8.45;5.53;;;19.00;72.10;;;;;;5105735;28;20032;-61
2022/08/07 01:46:57;;;;;;;11.10;5.80;;;19.10;72.40;;;;;;5110030;28;20355;-61
2022/08/07 01:49:24;;;;;;;10.13;5.25;;;19.00;72.50;;;;;;5097779;28;20031;-61
2022/08/07 01:51:51;;;;;;;13.60;6.05;;;18.90;73.30;;;;;;5099753;28;20028;-61
2022/08/07 01:54:19;;;;;;;9.95;6.05;;;18.90;73.00;;;;;;5092370;28;20024;-61
2022/08/07 01:56:53;;;;;;;8.68;5.47;;;18.90;73.20;;;;;;5102386;28;20127;-61
2022/08/07 01:59:49;;;;;;;9.88;6.05;;;18.90;73.30;;;;;;5104941;28;20478;-61
2022/08/07 02:02:20;;;;;;;9.90;5.75;;;18.90;73.10;;;;;;5090134;28;20032;-61
2022/08/07 02:04:58;;;;;;;8.15;5.30;;;18.80;73.10;;;;;;5091086;28;20039;-61
2022/08/07 02:07:33;;;;;;;12.77;5.05;;;18.90;73.40;;;;;;5090570;28;20039;-61
2022/08/07 02:10:03;;;;;;;7.72;4.78;;;18.80;73.80;;;;;;5103172;28;20024;-61
2022/08/07 02:12:38;;;;;;;10.18;5.28;;;18.80;74.10;;;;;;5091045;28;20028;-61
2022/08/07 02:15:08;;;;;;;7.82;5.07;;;18.80;74.40;;;;;;5091235;28;20024;-61
2022/08/07 02:17:41;;;;;;;8.45;4.72;;;18.80;74.30;;;;;;5100652;28;20038;-61
2022/08/07 02:20:08;;;;;;;8.70;4.72;;;18.70;74.40;;;;;;5089158;28;20836;-61
2022/08/07 02:22:37;;;;;;;8.90;5.45;;;18.70;74.40;;;;;;5088752;28;20024;-61
2022/08/07 02:25:06;;;;;;;8.48;4.63;;;18.60;74.40;;;;;;5091527;28;20031;-61
2022/08/07 02:27:33;;;;;;;8.80;5.65;;;18.60;74.60;;;;;;5103787;28;20036;-61
2022/08/07 02:30:01;;;;;;;12.02;5.10;;;18.60;74.60;;;;;;5089631;28;20028;-61
2022/08/07 02:32:35;;;;;;;7.97;5.53;;;18.60;74.50;;;;;;5098766;28;20433;-61
2022/08/07 02:35:06;;;;;;;10.32;5.05;;;18.50;74.40;;;;;;5110066;28;20047;-61
2022/08/07 02:37:39;;;;;;;11.65;4.68;;;18.50;74.50;;;;;;5099610;28;20093;-61
2022/08/07 02:40:08;;;;;;;8.85;5.10;;;18.50;74.60;;;;;;5104118;28;20028;-61
2022/08/07 02:42:34;;;;;;;6.53;4.68;;;18.50;74.60;;;;;;5115653;28;20032;-61
2022/08/07 02:45:03;;;;;;;7.72;4.82;;;18.40;74.70;;;;;;5099897;28;20499;-61
2022/08/07 02:47:30;;;;;;;11.52;5.88;;;18.40;74.80;;;;;;5114054;28;20031;-61
2022/08/07 02:50:10;;;;;;;8.65;5.30;;;18.40;74.80;;;;;;5101508;28;20509;-61
2022/08/07 02:52:52;;;;;;;11.10;5.03;;;18.40;74.80;;;;;;5103884;28;20387;-61
2022/08/07 02:55:30;;;;;;;8.85;4.82;;;18.30;74.80;;;;;;5112721;28;20042;-61
2022/08/07 02:58:09;;;;;;;15.57;6.00;;;18.30;74.90;;;;;;5101283;28;20066;-61
2022/08/07 03:00:37;;;;;;;9.43;5.57;;;18.30;75.00;;;;;;5111719;28;20035;-61
2022/08/07 03:03:06;;;;;;;8.68;4.63;;;18.30;74.90;;;;;;5095560;28;20036;-61
2022/08/07 03:05:36;;;;;;;11.30;5.25;;;18.30;74.80;;;;;;5096385;28;20466;-61
2022/08/07 03:08:06;;;;;;;9.18;4.68;;;18.30;74.70;;;;;;5103935;28;20070;-61
2022/08/07 03:10:33;;;;;;;7.35;5.00;;;18.20;74.80;;;;;;5107890;28;20028;-61
2022/08/07 03:13:00;;;;;;;8.52;4.75;;;18.20;74.80;;;;;;5094726;28;20052;-61
2022/08/07 03:15:27;;;;;;;8.55;5.00;;;18.10;74.80;;;;;;5093544;28;20089;-61
2022/08/07 03:18:00;;;;;;;8.00;4.72;;;18.10;75.00;;;;;;5095233;28;20491;-61
2022/08/07 03:20:26;;;;;;;12.37;4.90;;;18.10;75.10;;;;;;5092738;28;20506;-61
2022/08/07 03:22:53;;;;;;;8.52;4.97;;;18.10;75.10;;;;;;5093746;28;20032;-61
2022/08/07 03:25:22;;;;;;;8.70;4.80;;;18.10;75.20;;;;;;5112968;28;20538;-61
2022/08/07 03:27:51;;;;;;;7.40;4.57;;;18.00;75.20;;;;;;5099417;28;20024;-61
2022/08/07 03:30:17;;;;;;;9.38;5.25;;;18.00;75.30;;;;;;5099484;28;20070;-61
2022/08/07 03:32:48;;;;;;;12.50;4.85;;;18.00;75.30;;;;;;5112538;28;20436;-61
2022/08/07 03:35:20;;;;;;;12.73;5.38;;;18.00;75.40;;;;;;5098658;28;20020;-61
2022/08/07 03:37:54;;;;;;;8.00;5.25;;;18.00;75.40;;;;;;5108535;28;20390;-61
2022/08/07 03:40:24;;;;;;;7.78;4.65;;;17.90;75.30;;;;;;5112004;28;20027;-61
2022/08/07 03:42:51;;;;;;;7.85;4.72;;;17.90;75.30;;;;;;5110406;28;20382;-61
2022/08/07 03:45:18;;;;;;;7.00;4.75;;;17.90;75.40;;;;;;5110329;28;20463;-61
2022/08/07 03:47:45;;;;;;;7.03;4.85;;;17.80;75.50;;;;;;5109150;28;20058;-61
2022/08/07 03:50:11;;;;;;;9.90;4.68;;;17.80;75.50;;;;;;5114126;28;20031;-61
2022/08/07 03:52:38;;;;;;;11.13;4.80;;;17.80;75.60;;;;;;5108478;28;20019;-63
2022/08/07 03:55:07;;;;;;;12.48;4.70;;;17.80;75.80;;;;;;5110355;28;20024;-61
2022/08/07 03:57:35;;;;;;;11.48;4.47;;;17.70;75.80;;;;;;5095687;28;20162;-61
2022/08/07 04:00:02;;;;;;;6.80;4.40;;;17.70;75.80;;;;;;5108008;28;20016;-61
2022/08/07 04:02:33;;;;;;;7.57;4.38;;;17.80;75.90;;;;;;5107997;28;20029;-61
2022/08/07 04:04:59;;;;;;;7.10;4.78;;;17.70;75.80;;;;;;5097758;28;20423;-61
2022/08/07 04:07:25;;;;;;;8.20;4.57;;;17.70;75.80;;;;;;5099705;28;20024;-61
2022/08/07 04:09:52;;;;;;;7.63;4.47;;;17.70;75.70;;;;;;5093528;28;20111;-62
2022/08/07 04:12:22;;;;;;;7.13;4.20;;;17.70;75.70;;;;;;5110475;28;20036;-61
2022/08/07 04:14:48;;;;;;;8.57;4.80;;;17.70;75.80;;;;;;5094073;28;20039;-61
2022/08/07 04:17:16;;;;;;;7.25;4.55;;;17.60;75.80;;;;;;5098019;28;20028;-61
2022/08/07 04:19:42;;;;;;;8.57;4.40;;;17.60;75.80;;;;;;5100779;28;20494;-61
2022/08/07 04:22:11;;;;;;;12.23;4.93;;;17.60;75.60;;;;;;5099452;28;20795;-60
2022/08/07 04:24:41;;;;;;;8.15;4.65;;;17.60;75.80;;;;;;5097808;28;20476;-61
2022/08/07 04:27:09;;;;;;;10.75;5.28;;;17.50;75.80;;;;;;5099642;28;20510;-61
2022/08/07 04:29:35;;;;;;;11.45;5.35;;;17.50;75.80;;;;;;5100058;28;20102;-61
2022/08/07 04:32:01;;;;;;;6.55;4.68;;;17.50;75.90;;;;;;5103334;28;20135;-62
2022/08/07 04:34:28;;;;;;;7.68;4.72;;;17.50;76.00;;;;;;5092302;28;20074;-61
2022/08/07 04:36:54;;;;;;;7.85;5.05;;;17.50;76.10;;;;;;5101671;28;20567;-60
2022/08/07 04:39:20;;;;;;;11.32;5.07;;;17.50;76.10;;;;;;5098589;28;20028;-62
2022/08/07 04:41:46;;;;;;;9.95;4.93;;;17.40;76.20;;;;;;5111602;28;20020;-62
2022/08/07 04:44:14;;;;;;;13.10;4.93;;;17.40;76.30;;;;;;5109803;28;20106;-62
2022/08/07 04:47:04;;;;;;;6.65;4.53;;;17.50;76.30;;;;;;5110144;28;20055;-62
2022/08/07 04:49:43;;;;;;;10.10;4.70;;;17.40;76.10;;;;;;5105904;28;20498;-62
2022/08/07 04:52:47;;;;;;;11.07;4.28;;;17.30;76.10;;;;;;5107540;28;20031;-61
2022/08/07 04:55:36;;;;;;;7.03;4.25;;;17.40;76.80;;;;;;5102855;28;20395;-65
2022/08/07 04:58:30;;;;;;;8.38;5.15;;;17.30;76.20;;;;;;5109293;28;20057;-62
2022/08/07 05:01:27;;;;;;;9.02;5.10;;;17.30;76.20;;;;;;5104058;28;20544;-63
2022/08/07 05:04:14;;;;;;;8.68;4.68;;;17.30;76.20;;;;;;5094403;28;20035;-62
2022/08/07 05:06:48;;;;;;;8.07;5.00;;;17.30;76.40;;;;;;5106099;28;20115;-70
2022/08/07 05:09:23;;;;;;;8.73;5.28;;;17.30;76.80;;;;;;5105114;28;20034;-61
2022/08/07 05:11:51;;;;;;;7.82;4.50;;;17.30;77.00;;;;;;5104313;28;20032;-61
2022/08/07 05:14:30;;;;;;;9.85;4.70;;;17.30;77.00;;;;;;5099705;28;20111;-62
2022/08/07 05:16:59;;;;;;;10.13;4.72;;;17.30;77.20;;;;;;5102505;28;20368;-62
2022/08/07 05:19:34;;;;;;;6.93;3.90;;;17.30;77.60;;;;;;5098540;28;20099;-63
2022/08/07 05:22:02;;;;;;;8.27;4.22;;;17.30;78.30;;;;;;5092690;28;20383;-62
2022/08/07 05:24:34;;;;;;;6.60;4.20;;;17.30;78.10;;;;;;5106570;28;20502;-64
2022/08/07 05:27:01;;;;;;;8.52;4.22;;;17.30;78.20;;;;;;5105136;28;20028;-64
2022/08/07 05:29:28;;;;;;;7.25;3.95;;;17.30;78.00;;;;;;5109470;28;20496;-62
2022/08/07 05:31:56;;;;;;;7.38;4.60;;;17.30;78.20;;;;;;5108125;28;20145;-62
2022/08/07 05:34:27;;;;;;;12.20;4.85;;;17.40;78.00;;;;;;5097794;28;20036;-62
2022/08/07 05:36:55;;;;;;;8.35;4.88;;;17.40;77.90;;;;;;5106586;28;20082;-62
2022/08/07 05:39:36;;;;;;;11.20;4.90;;;17.50;78.10;;;;;;5108387;28;20028;-62
2022/08/07 05:42:04;;;;;;;7.47;4.75;;;17.50;77.90;;;;;;5089997;28;20537;-62
2022/08/07 05:44:34;;;;;;;10.27;5.00;;;17.50;78.10;;;;;;5091068;28;20111;-62
2022/08/07 05:47:02;;;;;;;8.20;4.20;;;17.50;78.10;;;;;;5103413;28;20482;-62
2022/08/07 05:49:28;;;;;;;10.70;4.60;;;17.50;78.10;;;;;;5097746;28;20024;-62
2022/08/07 05:51:54;;;;;;;9.65;5.13;;;17.50;78.00;;;;;;5099914;28;20024;-62
2022/08/07 05:54:22;;;;;;;8.93;4.60;;;17.60;78.20;;;;;;5103463;28;20105;-62
2022/08/07 05:56:48;;;;;;;7.40;4.68;;;17.50;78.20;;;;;;5097842;28;20452;-62
2022/08/07 05:59:19;;;;;;;9.30;4.70;;;17.60;78.40;;;;;;5097969;28;20025;-62
2022/08/07 06:01:50;;;;;;;7.32;4.45;;;17.50;78.70;;;;;;5105411;28;20027;-62
2022/08/07 06:04:20;;;;;;;7.18;4.18;;;17.60;78.80;;;;;;5101676;28;20102;-62
2022/08/07 06:06:46;;;;;;;8.10;4.57;;;17.60;78.90;;;;;;5093131;28;20420;-62
2022/08/07 06:09:15;;;;;;;6.53;3.80;;;17.60;78.90;;;;;;5110452;28;20015;-62
2022/08/07 06:11:44;;;;;;;14.80;5.60;;;17.60;78.80;;;;;;5095079;28;20023;-62
2022/08/07 06:14:11;;;;;;;8.27;4.07;;;17.70;78.50;;;;;;5103732;28;20088;-62
2022/08/07 06:16:37;;;;;;;7.10;3.80;;;17.60;77.80;;;;;;5098065;28;20032;-62
2022/08/07 06:19:05;;;;;;;11.75;4.32;;;17.70;77.80;;;;;;5098407;28;20024;-62
2022/08/07 06:21:32;;;;;;;9.80;4.05;;;17.60;77.80;;;;;;5103878;28;20027;-62
2022/08/07 06:23:59;;;;;;;7.15;4.35;;;17.70;77.70;;;;;;5104733;28;20075;-62
2022/08/07 06:26:25;;;;;;;10.13;4.35;;;17.70;77.70;;;;;;5097816;28;20036;-62
2022/08/07 06:28:58;;;;;;;6.57;4.07;;;17.70;77.70;;;;;;5103812;28;20026;-62
2022/08/07 06:31:25;;;;;;;9.00;4.43;;;17.70;77.80;;;;;;5102383;28;20471;-62
2022/08/07 06:33:58;;;;;;;10.35;4.15;;;17.70;77.70;;;;;;5107018;28;20028;-62
2022/08/07 06:36:26;;;;;;;7.57;4.22;;;17.80;77.90;;;;;;5107006;28;20042;-62
2022/08/07 06:38:56;;;;;;;7.88;3.65;;;17.80;78.10;;;;;;5094595;28;20394;-62
2022/08/07 06:41:39;;;;;;;7.97;3.83;;;17.80;78.30;;;;;;5107396;28;20032;-62
2022/08/07 06:44:09;;;;;;;7.20;4.20;;;17.90;78.10;;;;;;5093956;28;20414;-62
2022/08/07 06:46:38;;;;;;;8.07;4.55;;;17.90;78.00;;;;;;5114255;28;20028;-62
2022/08/07 06:49:05;;;;;;;7.00;3.22;;;17.90;77.70;;;;;;5113874;28;20110;-62
2022/08/07 06:51:35;;;;;;;9.18;3.92;;;18.00;77.20;;;;;;5094177;28;20124;-62
2022/08/07 06:54:08;;;;;;;6.88;3.20;;;18.00;77.50;;;;;;5095118;28;20451;-62
2022/08/07 06:56:42;;;;;;;6.38;3.05;;;18.00;77.20;;;;;;5094267;28;20046;-62
2022/08/07 06:59:38;;;;;;;4.88;3.10;;;18.10;76.80;;;;;;5094547;28;20026;-62
2022/08/07 07:02:08;;;;;;;5.28;2.83;;;18.10;76.60;;;;;;5094317;28;20034;-62
2022/08/07 07:04:37;;;;;;;4.13;2.30;;;18.00;76.50;;;;;;5103847;28;20409;-62
2022/08/07 07:07:05;;;;;;;5.95;3.00;;;18.10;76.70;;;;;;5100073;28;20044;-62
2022/08/07 07:09:32;;;;;;;5.05;3.00;;;18.10;76.80;;;;;;5095570;28;20110;-62
2022/08/07 07:12:06;;;;;;;3.65;2.53;;;18.10;76.70;;;;;;5111648;27;20043;-62
2022/08/07 07:14:38;;;;;;;4.63;2.60;;;18.20;76.80;;;;;;5095744;28;20039;-62
2022/08/07 07:17:13;;;;;;;5.30;2.17;;;18.20;76.70;;;;;;5095355;28;20372;-62
2022/08/07 07:19:46;;;;;;;3.22;1.65;;;18.20;76.70;;;;;;5094744;28;20066;-62
2022/08/07 07:22:13;;;;;;;;;;;18.20;76.40;;;;;;5108496;28;20028;-62
2022/08/07 07:24:40;;;;;;;5.57;2.42;;;18.20;76.20;;;;;;5096228;28;19997;-62
2022/08/07 07:27:07;;;;;;;6.65;3.45;;;18.20;76.70;;;;;;5093744;28;20062;-62
2022/08/07 07:29:36;;;;;;;3.90;2.53;;;18.20;77.40;;;;;;5095410;28;20040;-62
2022/08/07 07:32:09;;;;;;;6.65;2.75;;;18.20;77.50;;;;;;5107686;28;20051;-62
2022/08/07 07:34:39;;;;;;;6.82;2.38;;;18.20;77.00;;;;;;5094885;28;20032;-62
2022/08/07 07:37:07;;;;;;;3.28;1.90;;;18.20;76.80;;;;;;5094982;28;20475;-62
2022/08/07 07:39:35;;;;;;;2.28;1.65;;;18.20;76.90;;;;;;5094491;28;20506;-62
2022/08/07 07:42:03;;;;;;;4.10;2.47;;;18.20;76.90;;;;;;5094989;28;20043;-62
2022/08/07 07:44:30;;;;;;;4.35;2.10;;;18.30;77.30;;;;;;5110310;28;20063;-62
2022/08/07 07:46:58;;;;;;;2.75;1.75;;;18.30;77.30;;;;;;5105057;28;20032;-62
2022/08/07 07:49:26;;;;;;;1.35;1.00;;;18.30;77.20;;;;;;5107633;28;20032;-62
2022/08/07 07:51:53;;;;;;;3.67;2.15;;;18.30;77.10;;;;;;5094828;28;20028;-62
2022/08/07 07:54:19;;;;;;;6.38;2.35;;;18.40;77.20;;;;;;5097911;28;20082;-62
2022/08/07 07:56:46;;;;;;;3.15;1.70;;;18.40;76.90;;;;;;5114626;28;20050;-62
2022/08/07 07:59:17;;;;;;;4.22;2.20;;;18.50;76.90;;;;;;5109579;28;20028;-62
2022/08/07 08:01:45;;;;;;;4.53;2.22;;;18.50;76.70;;;;;;5105200;28;20032;-62
2022/08/07 08:04:12;;;;;;;2.47;1.60;;;18.50;76.70;;;;;;5112901;28;20383;-62
2022/08/07 08:06:43;;;;;;;1.50;1.35;;;18.50;76.80;;;;;;5113286;28;20463;-62
2022/08/07 08:09:10;;;;;;;3.55;2.78;;;18.60;76.40;;;;;;5093479;28;20032;-62
2022/08/07 08:11:36;;;;;;;4.35;2.70;;;18.60;76.30;;;;;;5106855;28;20089;-62
2022/08/07 08:14:02;;;;;;;4.53;2.88;;;18.60;76.50;;;;;;5111892;28;20031;-62
2022/08/07 08:16:33;;;;;;;4.88;3.17;;;18.60;76.50;;;;;;5111860;28;20388;-62
2022/08/07 08:19:00;;;;;;;4.90;2.47;;;18.70;76.30;;;;;;5094185;28;20357;-62
2022/08/07 08:27:05;;;;;;;5.53;3.15;;;18.70;76.20;;;;;;5106311;28;20070;-62
2022/08/07 08:29:57;;;;;;;5.90;3.22;;;18.80;76.30;;;;;;5103939;28;20475;-62
2022/08/07 08:32:26;;;;;;;5.88;3.15;;;18.80;76.10;;;;;;5095236;28;20048;-62
2022/08/07 08:34:53;;;;;;;3.75;2.28;;;18.90;75.90;;;;;;5097463;28;20235;-62
2022/08/07 08:37:20;;;;;;;5.82;2.80;;;18.90;75.90;;;;;;5102277;28;20024;-62
2022/08/07 08:39:48;;;;;;;6.10;2.95;;;18.90;76.00;;;;;;5110790;28;20074;-62
2022/08/07 08:42:29;;;;;;;4.13;2.67;;;18.90;76.00;;;;;;5112155;28;20408;-62
2022/08/07 08:45:36;;;;;;;13.02;2.80;;;19.00;75.80;;;;;;5099585;28;20019;-62
2022/08/07 08:48:17;;;;;;;5.57;3.13;;;19.00;75.80;;;;;;5107216;28;20073;-62
2022/08/07 08:50:51;;;;;;;4.35;2.50;;;19.10;75.80;;;;;;5106918;28;20023;-62
2022/08/07 08:53:53;;;;;;;10.23;3.35;;;19.10;75.70;;;;;;5101337;28;20483;-62
2022/08/07 08:56:45;;;;;;;7.22;3.47;;;19.20;75.90;;;;;;5098614;28;20085;-62
2022/08/07 08:59:20;;;;;;;6.68;2.15;;;19.20;75.60;;;;;;5096801;28;20123;-62
2022/08/07 09:01:53;;;;;;;4.30;2.55;;;19.20;75.50;;;;;;5104510;28;20378;-62
2022/08/07 09:04:45;;;;;;;4.22;2.47;;;19.30;75.60;;;;;;5110827;28;20015;-62
2022/08/07 09:07:37;;;;;;;4.25;2.60;;;19.30;75.40;;;;;;5108907;28;20024;-62
2022/08/07 09:10:31;;;;;;;3.00;1.73;;;19.40;75.30;;;;;;5061177;28;20402;-62
2022/08/07 09:13:29;;;;;;;10.45;3.50;;;19.50;75.60;;;;;;5093863;28;20078;-62
2022/08/07 09:16:21;;;;;;;5.35;2.83;;;19.40;75.40;;;;;;5101459;28;20127;-62
2022/08/07 09:19:10;;;;;;;5.72;2.97;;;19.50;75.60;;;;;;5098150;28;20084;-62
2022/08/07 09:21:49;;;;;;;2.38;1.40;;;19.50;75.20;;;;;;5096894;28;20024;-62
2022/08/07 09:24:46;;;;;;;7.47;1.90;;;19.60;75.10;;;;;;5103917;28;20032;-62
2022/08/07 09:27:29;;;;;;;5.00;2.72;;;19.70;74.90;;;;;;5101416;28;20497;-62
2022/08/07 09:29:59;;;;;;;6.80;3.63;;;19.60;74.70;;;;;;5099402;28;20043;-62
2022/08/07 09:32:56;;;;;;;9.25;3.13;;;19.70;74.30;;;;;;5095754;28;20580;-62
2022/08/07 09:35:53;;;;;;;5.53;3.17;;;19.80;74.30;;;;;;5101969;28;20031;-62
2022/08/07 09:38:30;;;;;;;7.72;3.10;;;19.90;74.00;;;;;;5099571;28;20465;-62
2022/08/07 09:41:28;;;;;;;3.75;2.70;;;19.90;73.80;;;;;;5097751;28;20660;-62
2022/08/07 09:44:00;;;;;;;3.28;2.03;;;20.00;74.50;;;;;;5100340;28;20115;-62
2022/08/07 09:47:09;;;;;;;5.68;2.53;;;20.00;73.70;;;;;;5099264;28;20395;-62
2022/08/07 09:49:54;;;;;;;7.35;2.80;;;20.10;73.20;;;;;;5111526;28;20096;-62
2022/08/07 09:52:32;;;;;;;5.57;3.08;;;20.20;73.00;;;;;;5110700;28;20036;-62
2022/08/07 09:55:08;;;;;;;4.57;2.65;;;20.30;72.90;;;;;;5112103;28;20471;-62
2022/08/07 09:57:59;;;;;;;4.93;2.95;;;20.30;73.00;;;;;;5112089;28;20502;-62
2022/08/07 10:00:34;;;;;;;5.45;2.28;;;20.40;73.00;;;;;;5110633;28;20031;-62
2022/08/07 10:03:09;;;;;;;4.35;3.20;;;20.40;73.00;;;;;;5112222;28;20114;-62
2022/08/07 10:06:01;;;;;;;5.07;2.92;;;20.50;73.20;;;;;;5110729;28;20031;-62
2022/08/07 10:08:31;;;;;;;6.88;3.35;;;20.50;73.30;;;;;;5110607;28;20471;-62
2022/08/07 10:11:01;;;;;;;5.93;3.35;;;20.60;73.10;;;;;;5112192;28;20035;-62
2022/08/07 10:13:45;;;;;;;7.03;3.53;;;20.60;73.40;;;;;;5107130;28;20032;-62
2022/08/07 10:16:16;;;;;;;4.80;3.03;;;20.70;73.50;;;;;;5104766;28;20039;-62
2022/08/07 10:18:59;;;;;;;3.78;2.88;;;20.80;72.70;;;;;;5100422;28;20511;-62
2022/08/07 10:21:48;;;;;;;4.30;2.55;;;20.80;72.30;;;;;;5094002;28;20493;-62
2022/08/07 10:24:25;;;;;;;3.33;2.13;;;20.90;72.40;;;;;;5105095;28;20055;-62
2022/08/07 10:27:07;;;;;;;1.73;1.40;;;20.80;72.10;;;;;;5111588;28;20027;-62
2022/08/07 10:29:58;;;;;;;4.80;2.85;;;20.90;72.20;;;;;;5098648;28;20032;-62
2022/08/07 10:32:35;;;;;;;4.38;1.92;;;20.90;71.50;;;;;;5092991;28;20052;-62
2022/08/07 10:35:16;;;;;;;2.63;2.13;;;21.00;71.80;;;;;;5095665;28;20027;-62
2022/08/07 10:38:19;;;;;;;3.30;1.80;;;21.10;71.80;;;;;;5099517;28;20102;-62
2022/08/07 10:41:03;;;;;;;4.18;2.60;;;21.10;71.60;;;;;;5103782;28;20036;-62
2022/08/07 10:43:34;;;;;;;5.95;2.70;;;21.20;71.20;;;;;;5098851;28;20125;-62
2022/08/07 10:46:06;;;;;;;3.55;2.28;;;21.20;70.80;;;;;;5097841;28;20059;-62
2022/08/07 10:49:12;;;;;;;4.28;2.58;;;21.30;70.80;;;;;;5092057;28;20063;-62
2022/08/07 10:51:48;;;;;;;3.58;2.47;;;21.40;71.00;;;;;;5092320;28;20068;-62
2022/08/07 10:54:41;;;;;;;4.53;2.30;;;21.40;70.40;;;;;;5091894;28;20040;-62
2022/08/07 10:57:24;;;;;;;2.40;1.65;;;21.40;70.00;;;;;;5104511;28;20035;-62
2022/08/07 11:00:03;;;;;;;3.42;2.10;;;21.50;70.80;;;;;;5092431;28;20074;-62
2022/08/07 11:02:34;;;;;;;2.97;2.28;;;21.50;69.70;;;;;;5094619;28;20031;-62
2022/08/07 11:05:20;;;;;;;4.22;2.13;;;21.50;68.90;;;;;;5106158;28;20061;-62
2022/08/07 11:08:35;;;;;;;3.88;2.10;;;21.60;68.40;;;;;;5103169;28;20061;-62
2022/08/07 11:11:05;;;;;;;7.40;2.70;;;21.70;67.80;;;;;;5107245;28;20039;-62
2022/08/07 11:13:37;;;;;;;7.40;2.20;;;21.80;67.20;;;;;;5108489;28;20038;-62
2022/08/07 11:16:29;;;;;;;6.13;1.73;;;21.90;66.20;;;;;;5104535;28;20032;-62
2022/08/07 11:19:10;;;;;;;8.40;2.00;;;22.00;66.50;;;;;;5062857;28;20055;-62
2022/08/07 11:21:35;;;;;;;5.07;2.60;;;22.00;68.00;;;;;;5109879;28;20459;-62
2022/08/07 11:24:04;;;;;;;9.00;2.25;;;22.10;68.40;;;;;;5114446;28;20115;-62
2022/08/07 11:26:43;;;;;;;7.72;2.63;;;22.10;68.50;;;;;;5114145;28;20032;-62
2022/08/07 11:29:20;;;;;;;5.22;2.40;;;22.10;68.00;;;;;;5105004;28;20115;-62
2022/08/07 11:31:59;;;;;;;3.50;2.40;;;22.10;68.10;;;;;;5110647;28;20059;-62
2022/08/07 11:34:38;;;;;;;3.58;2.33;;;22.20;68.50;;;;;;5102639;28;20036;-62
2022/08/07 11:37:15;;;;;;;6.18;2.80;;;22.30;68.40;;;;;;5107438;28;20040;-62
2022/08/07 11:39:56;;;;;;;5.47;2.50;;;22.30;68.10;;;;;;5094128;28;20016;-62
2022/08/07 11:42:49;;;;;;;4.20;2.72;;;22.40;68.30;;;;;;5094987;28;20043;-62
2022/08/07 11:45:33;;;;;;;3.20;1.80;;;22.60;68.10;;;;;;5103720;28;20386;-62
2022/08/07 11:48:08;;;;;;;8.80;2.38;;;22.70;68.70;;;;;;5100972;28;20028;-62
2022/08/07 11:50:48;;;;;;;5.22;2.30;;;22.70;67.90;;;;;;5102059;28;20036;-62
2022/08/07 11:53:29;;;;;;;3.72;2.15;;;22.70;67.80;;;;;;5094568;28;20028;-62
2022/08/07 11:56:21;;;;;;;4.07;2.35;;;22.80;67.40;;;;;;5097542;28;20040;-62
2022/08/07 11:59:06;;;;;;;5.05;2.30;;;22.80;65.80;;;;;;5100691;28;20383;-62
2022/08/07 12:01:49;;;;;;;4.53;2.45;;;22.90;66.40;;;;;;5115018;28;20038;-62
2022/08/07 12:04:33;;;;;;;3.58;2.03;;;23.00;65.60;;;;;;5107852;28;20028;-62
2022/08/07 12:07:44;;;;;;;2.60;1.55;;;23.10;65.50;;;;;;5093711;28;20032;-62
2022/08/07 12:10:20;;;;;;;3.85;2.38;;;23.20;67.20;;;;;;5031249;28;20029;-62
2022/08/07 12:12:52;;;;;;;5.03;2.15;;;23.20;66.90;;;;;;5031555;28;20042;-62
2022/08/07 12:15:23;;;;;;;6.22;2.20;;;23.20;66.80;;;;;;5072492;28;20036;-62
2022/08/07 12:18:02;;;;;;;8.02;2.00;;;23.20;66.60;;;;;;5114316;28;20040;-62
2022/08/07 12:20:33;;;;;;;5.03;2.25;;;23.30;67.00;;;;;;5112127;28;20485;-62
2022/08/07 12:23:22;;;;;;;3.97;2.17;;;23.20;66.80;;;;;;5112852;28;20118;-62
2022/08/07 12:26:11;;;;;;;4.30;1.80;;;23.20;67.00;;;;;;5094227;28;20032;-62
2022/08/07 12:28:52;;;;;;;4.03;2.22;;;23.20;67.30;;;;;;5097537;28;20015;-62
2022/08/07 12:31:57;;;;;;;7.28;2.83;;;23.20;66.90;;;;;;5112826;27;20027;-62
2022/08/07 12:34:25;;;;;;;4.70;2.20;;;23.20;67.10;;;;;;5054425;28;20139;-62
2022/08/07 12:36:53;;;;;;;2.80;2.20;;;23.20;67.10;;;;;;5093553;28;20035;-62
2022/08/07 12:39:20;;;;;;;7.20;2.40;;;23.20;66.80;;;;;;5093838;28;20120;-62
2022/08/07 12:41:50;;;;;;;7.13;2.53;;;23.20;67.20;;;;;;5106442;28;20032;-62
2022/08/07 12:44:18;;;;;;;5.93;2.75;;;23.30;66.90;;;;;;5107358;28;20088;-62
2022/08/07 12:47:15;;;;;;;4.28;2.28;;;23.30;67.90;;;;;;5106314;28;20032;-62
2022/08/07 12:49:49;;;;;;;4.25;2.33;;;23.40;68.10;;;;;;5098230;28;20038;-62
2022/08/07 12:52:24;;;;;;;8.32;2.63;;;23.40;68.50;;;;;;5100238;28;20028;-62
2022/08/07 12:54:53;;;;;;;4.85;2.17;;;23.50;69.10;;;;;;5105113;28;20035;-62
2022/08/07 12:57:26;;;;;;;4.65;2.30;;;23.50;68.60;;;;;;5107948;28;20054;-62
2022/08/07 12:59:54;;;;;;;3.00;2.20;;;23.60;68.60;;;;;;5103768;28;20062;-62
2022/08/07 13:02:28;;;;;;;3.60;2.25;;;23.70;68.50;;;;;;5093070;28;20046;-62
2022/08/07 13:05:16;;;;;;;4.00;2.20;;;23.70;68.50;;;;;;5104984;28;20024;-62
2022/08/07 13:08:06;;;;;;;5.38;2.13;;;23.70;68.50;;;;;;5101550;28;20024;-63
2022/08/07 13:10:34;;;;;;;3.72;2.28;;;23.80;68.20;;;;;;5111623;28;20032;-62
2022/08/07 13:13:25;;;;;;;3.83;2.20;;;23.80;68.00;;;;;;5112670;28;20028;-62
2022/08/07 13:16:17;;;;;;;4.68;2.42;;;23.80;68.10;;;;;;5093293;28;20391;-62
2022/08/07 13:18:46;;;;;;;5.68;2.08;;;23.90;68.40;;;;;;5097754;28;20042;-62
2022/08/07 13:21:17;;;;;;;5.65;2.03;;;23.90;67.50;;;;;;5113104;28;20490;-63
2022/08/07 13:23:52;;;;;;;4.40;2.40;;;23.90;67.20;;;;;;5099488;28;20479;-62
2022/08/07 13:26:35;;;;;;;4.45;2.10;;;23.90;67.40;;;;;;5097313;28;20051;-62